Time;durP1;ratioP1;P1;durP2;ratioP2;P2;SDS_P1;SDS_P2;PMS_P1;PMS_P2;Temp;Humidity;BMP_temperature;BMP_pressure;BME280_temperature;BME280_humidity;BME280_pressure;Samples;Min_cycle;Max_cycle;Signal;HPM_P1;HPM_P2
2021/08/24 00:00:31;;;;;;;2.17;1.33;;;14.50;99.90;;;;;;4992491;28;20426;-67
2021/08/24 00:03:00;;;;;;;3.37;1.80;;;14.30;99.90;;;;;;4991212;28;20454;-66
2021/08/24 00:05:33;;;;;;;3.93;1.30;;;14.30;99.90;;;;;;4992693;28;20425;-67
2021/08/24 00:08:02;;;;;;;1.93;1.20;;;14.20;99.90;;;;;;4993105;28;20495;-67
2021/08/24 00:10:34;;;;;;;2.00;1.37;;;14.10;99.90;;;;;;4992746;28;20432;-68
2021/08/24 00:13:04;;;;;;;3.20;1.10;;;14.00;99.90;;;;;;4992911;28;20468;-67
2021/08/24 00:15:33;;;;;;;4.20;1.00;;;13.90;99.90;;;;;;4992627;28;20444;-66
2021/08/24 00:18:04;;;;;;;2.80;1.60;;;13.90;99.90;;;;;;4992427;28;20461;-67
2021/08/24 00:20:32;;;;;;;2.33;1.73;;;13.80;99.90;;;;;;4992409;28;20422;-66
2021/08/24 00:23:03;;;;;;;2.83;1.53;;;13.70;99.90;;;;;;4992685;28;20446;-66
2021/08/24 00:25:32;;;;;;;1.83;1.50;;;13.60;99.90;;;;;;4992519;28;20515;-66
2021/08/24 00:28:00;;;;;;;2.00;1.50;;;13.50;99.90;;;;;;4992180;28;20400;-66
2021/08/24 00:30:31;;;;;;;1.57;0.93;;;13.50;99.90;;;;;;4992811;28;20801;-67
2021/08/24 00:33:00;;;;;;;7.47;2.80;;;13.40;99.90;;;;;;4992299;28;20462;-67
2021/08/24 00:35:28;;;;;;;2.47;1.60;;;13.30;99.90;;;;;;4991582;28;20465;-66
2021/08/24 00:37:56;;;;;;;3.57;1.57;;;13.30;99.90;;;;;;4992370;28;20929;-66
2021/08/24 00:40:25;;;;;;;4.90;1.57;;;13.20;99.90;;;;;;4992395;28;20422;-66
2021/08/24 00:42:53;;;;;;;2.53;1.43;;;13.10;99.90;;;;;;4991685;28;20450;-66
2021/08/24 00:45:21;;;;;;;4.67;1.77;;;13.10;99.90;;;;;;4991937;28;20434;-66
2021/08/24 00:47:51;;;;;;;6.73;1.40;;;13.00;99.90;;;;;;4991381;28;20437;-66
2021/08/24 00:50:25;;;;;;;3.07;1.80;;;13.00;99.90;;;;;;4991917;28;20473;-67
2021/08/24 00:52:55;;;;;;;3.33;1.47;;;12.90;99.90;;;;;;4992368;28;20442;-67
2021/08/24 00:55:24;;;;;;;2.87;1.60;;;12.90;99.90;;;;;;4992269;28;20480;-67
2021/08/24 00:57:57;;;;;;;1.93;1.63;;;12.80;99.90;;;;;;4991351;28;20517;-67
2021/08/24 01:00:26;;;;;;;4.23;1.60;;;12.80;99.90;;;;;;4991805;28;20422;-66
2021/08/24 01:02:58;;;;;;;10.30;1.57;;;12.80;99.90;;;;;;4991510;28;20956;-66
2021/08/24 01:05:28;;;;;;;2.80;1.27;;;12.70;99.90;;;;;;4992060;28;20489;-66
2021/08/24 01:08:04;;;;;;;5.03;2.43;;;12.70;99.90;;;;;;4991802;28;20418;-66
2021/08/24 01:10:39;;;;;;;4.77;1.83;;;12.60;99.90;;;;;;4991353;28;20556;-66
2021/08/24 01:13:19;;;;;;;3.13;1.20;;;12.60;99.90;;;;;;4990983;28;20456;-66
2021/08/24 01:15:54;;;;;;;4.90;2.00;;;12.60;99.90;;;;;;4991652;28;20430;-66
2021/08/24 01:18:31;;;;;;;7.03;2.07;;;12.50;99.90;;;;;;4991170;28;20421;-66
2021/08/24 01:21:19;;;;;;;3.73;1.93;;;12.50;99.90;;;;;;4991751;28;20430;-66
2021/08/24 01:23:53;;;;;;;4.40;2.10;;;12.40;99.90;;;;;;4991513;28;20426;-66
2021/08/24 01:26:29;;;;;;;3.60;2.00;;;12.40;99.90;;;;;;4991295;28;20426;-67
2021/08/24 01:29:25;;;;;;;2.27;1.80;;;12.40;99.90;;;;;;4991588;28;21004;-67
2021/08/24 01:32:12;;;;;;;7.53;1.97;;;12.30;99.90;;;;;;4991415;28;20549;-67
2021/08/24 01:34:57;;;;;;;3.00;1.60;;;12.30;99.90;;;;;;4991265;28;20433;-67
2021/08/24 01:37:33;;;;;;;2.00;1.50;;;12.30;99.90;;;;;;4991450;28;20410;-67
2021/08/24 01:40:08;;;;;;;6.20;1.47;;;12.20;99.90;;;;;;4991877;28;20471;-67
2021/08/24 01:42:37;;;;;;;6.20;2.27;;;12.10;99.90;;;;;;4991337;28;20578;-67
2021/08/24 01:45:10;;;;;;;5.03;2.27;;;12.10;99.90;;;;;;4991322;28;20404;-67
2021/08/24 01:47:45;;;;;;;2.90;1.50;;;12.10;99.90;;;;;;4989607;28;20473;-67
2021/08/24 01:50:17;;;;;;;6.10;1.70;;;12.10;99.90;;;;;;4991110;28;20480;-67
2021/08/24 01:52:50;;;;;;;4.07;2.17;;;12.00;99.90;;;;;;4991565;28;20445;-67
2021/08/24 01:55:23;;;;;;;3.83;2.37;;;12.10;99.90;;;;;;4991182;28;20801;-67
2021/08/24 01:57:56;;;;;;;2.93;1.50;;;12.00;99.90;;;;;;4991457;28;20407;-67
2021/08/24 02:00:25;;;;;;;4.03;1.90;;;12.00;99.90;;;;;;4991063;28;20430;-67
2021/08/24 02:03:01;;;;;;;2.60;1.67;;;12.00;99.90;;;;;;4991518;28;20484;-69
2021/08/24 02:05:34;;;;;;;1.80;1.40;;;12.00;99.90;;;;;;4991335;28;21011;-67
2021/08/24 02:08:08;;;;;;;3.30;2.03;;;11.90;99.90;;;;;;4991268;28;20422;-68
2021/08/24 02:10:36;;;;;;;2.70;2.10;;;11.90;99.90;;;;;;4991085;28;20984;-68
2021/08/24 02:13:06;;;;;;;2.50;1.90;;;11.90;99.90;;;;;;4990944;28;20462;-68
2021/08/24 02:15:40;;;;;;;3.60;2.07;;;11.80;99.90;;;;;;4990975;28;20784;-67
2021/08/24 02:18:12;;;;;;;3.03;1.90;;;11.80;99.90;;;;;;4991024;28;20410;-68
2021/08/24 02:20:44;;;;;;;6.83;2.40;;;11.80;99.90;;;;;;4990775;28;20404;-67
2021/08/24 02:23:22;;;;;;;12.60;2.43;;;11.80;99.90;;;;;;4992546;28;20496;-67
2021/08/24 02:25:54;;;;;;;6.00;2.23;;;11.70;99.90;;;;;;4995009;28;20435;-67
2021/08/24 02:28:25;;;;;;;3.30;2.17;;;11.70;99.90;;;;;;4995175;28;20421;-67
2021/08/24 02:30:59;;;;;;;3.10;1.57;;;11.80;99.90;;;;;;4993515;28;20476;-67
2021/08/24 02:33:36;;;;;;;3.50;1.93;;;11.70;99.90;;;;;;4994993;28;21021;-68
2021/08/24 02:36:06;;;;;;;3.07;2.20;;;11.70;99.90;;;;;;4994789;28;20863;-67
2021/08/24 02:38:38;;;;;;;2.33;1.43;;;11.70;99.90;;;;;;4994991;28;20476;-67
2021/08/24 02:41:12;;;;;;;4.03;1.53;;;11.70;99.90;;;;;;4994705;28;20435;-67
2021/08/24 02:43:48;;;;;;;2.60;1.80;;;11.70;99.90;;;;;;4994917;28;20413;-67
2021/08/24 02:46:21;;;;;;;2.50;1.87;;;11.60;99.90;;;;;;4994792;28;20445;-68
2021/08/24 02:48:54;;;;;;;2.63;2.30;;;11.60;99.90;;;;;;4994453;28;20602;-67
2021/08/24 02:51:24;;;;;;;2.53;1.97;;;11.60;99.90;;;;;;4994644;28;20469;-67
2021/08/24 02:53:59;;;;;;;7.83;1.90;;;11.60;99.90;;;;;;4994383;28;20433;-67
2021/08/24 02:56:27;;;;;;;3.67;2.07;;;11.60;99.90;;;;;;4994438;28;20432;-67
2021/08/24 02:58:55;;;;;;;1.60;1.40;;;11.50;99.90;;;;;;4994435;28;20424;-68
2021/08/24 03:01:24;;;;;;;2.77;2.37;;;11.50;99.90;;;;;;4994109;28;20445;-67
2021/08/24 03:03:52;;;;;;;5.97;2.93;;;11.50;99.90;;;;;;4994568;28;20857;-67
2021/08/24 03:06:20;;;;;;;3.73;2.00;;;11.50;99.90;;;;;;4994357;28;20425;-67
2021/08/24 03:08:50;;;;;;;2.63;1.90;;;11.50;99.90;;;;;;4994431;28;20983;-68
2021/08/24 03:11:23;;;;;;;7.23;1.80;;;11.50;99.90;;;;;;4993974;28;20496;-67
2021/08/24 03:13:58;;;;;;;3.20;2.67;;;11.40;99.90;;;;;;4994841;28;20437;-68
2021/08/24 03:16:34;;;;;;;2.77;1.60;;;11.40;99.90;;;;;;4994511;28;20969;-68
2021/08/24 03:19:07;;;;;;;2.07;1.83;;;11.40;99.90;;;;;;4994676;28;20425;-67
2021/08/24 03:21:37;;;;;;;1.90;1.63;;;11.40;99.90;;;;;;4994325;28;20987;-68
2021/08/24 03:24:10;;;;;;;5.70;1.90;;;11.40;99.90;;;;;;4994128;28;20433;-67
2021/08/24 03:26:42;;;;;;;5.90;2.70;;;11.30;99.90;;;;;;4993945;28;20437;-67
2021/08/24 03:29:12;;;;;;;2.37;2.03;;;11.30;99.90;;;;;;4994467;28;20430;-67
2021/08/24 03:31:41;;;;;;;3.03;2.23;;;11.30;99.90;;;;;;4993989;28;20440;-67
2021/08/24 03:34:10;;;;;;;4.53;3.00;;;11.30;99.90;;;;;;4993643;28;20426;-67
2021/08/24 03:36:38;;;;;;;5.50;2.00;;;11.30;99.90;;;;;;4993655;28;20440;-67
2021/08/24 03:39:06;;;;;;;2.67;1.70;;;11.30;99.90;;;;;;4993988;28;20793;-67
2021/08/24 03:41:34;;;;;;;2.80;2.33;;;11.20;99.90;;;;;;4993563;28;20416;-67
2021/08/24 03:44:04;;;;;;;3.47;2.40;;;11.20;99.90;;;;;;4993994;28;20400;-67
2021/08/24 03:46:32;;;;;;;3.00;2.10;;;11.20;99.90;;;;;;4993556;28;20457;-67
2021/08/24 03:49:01;;;;;;;3.70;2.23;;;11.20;99.90;;;;;;4993432;28;20512;-67
2021/08/24 03:51:29;;;;;;;4.77;2.50;;;11.20;99.90;;;;;;4993631;28;20488;-67
2021/08/24 03:53:57;;;;;;;3.23;1.67;;;11.20;99.90;;;;;;4993935;28;20461;-67
2021/08/24 03:56:25;;;;;;;3.43;2.33;;;11.20;99.90;;;;;;4993582;28;20421;-67
2021/08/24 03:58:53;;;;;;;3.40;2.10;;;11.20;99.90;;;;;;4993399;28;20419;-67
2021/08/24 04:01:23;;;;;;;3.43;1.73;;;11.10;99.90;;;;;;4993575;28;21005;-67
2021/08/24 04:03:51;;;;;;;6.80;3.40;;;11.10;99.90;;;;;;4993728;28;20837;-68
2021/08/24 04:06:19;;;;;;;2.13;1.67;;;11.10;99.90;;;;;;4993380;28;20484;-67
2021/08/24 04:08:47;;;;;;;3.00;1.90;;;11.10;99.90;;;;;;4993622;28;20425;-68
2021/08/24 04:11:16;;;;;;;4.10;2.13;;;11.10;99.90;;;;;;4993164;28;20452;-68
2021/08/24 04:13:44;;;;;;;3.77;2.10;;;11.10;99.90;;;;;;4992825;28;20443;-67
2021/08/24 04:16:13;;;;;;;3.03;2.03;;;11.10;99.90;;;;;;4993127;28;20477;-68
2021/08/24 04:18:43;;;;;;;3.60;1.83;;;11.10;99.90;;;;;;4993466;28;20781;-68
2021/08/24 04:21:14;;;;;;;4.07;2.27;;;11.10;99.90;;;;;;4993153;28;20819;-68
2021/08/24 04:23:43;;;;;;;5.77;3.23;;;11.10;99.90;;;;;;4993862;28;20393;-68
2021/08/24 04:26:12;;;;;;;3.07;2.67;;;11.20;99.90;;;;;;4993229;28;20916;-68
2021/08/24 04:28:40;;;;;;;4.07;2.33;;;11.20;99.90;;;;;;4992813;28;20833;-67
2021/08/24 04:31:13;;;;;;;3.20;2.27;;;11.20;99.90;;;;;;4992451;28;20407;-68
2021/08/24 04:33:43;;;;;;;3.60;2.70;;;11.20;99.90;;;;;;4992823;28;20448;-69
2021/08/24 04:36:11;;;;;;;3.00;2.10;;;11.30;99.90;;;;;;4991276;28;20442;-68
2021/08/24 04:38:39;;;;;;;4.23;2.77;;;11.50;99.90;;;;;;4992549;28;20821;-68
2021/08/24 04:41:08;;;;;;;3.40;2.90;;;11.90;99.90;;;;;;4992350;28;20422;-68
2021/08/24 04:43:37;;;;;;;3.90;2.90;;;12.20;99.90;;;;;;4992570;28;20441;-68
2021/08/24 04:46:05;;;;;;;3.50;3.20;;;12.70;99.90;;;;;;4992038;28;20991;-68
2021/08/24 04:48:34;;;;;;;3.80;2.37;;;13.20;99.90;;;;;;4992468;28;20530;-68
2021/08/24 04:51:03;;;;;;;2.93;2.40;;;13.50;99.90;;;;;;4992068;28;20429;-68
2021/08/24 04:53:31;;;;;;;6.50;1.80;;;13.90;99.90;;;;;;4992270;28;20457;-68
2021/08/24 04:55:59;;;;;;;4.17;2.60;;;14.00;99.90;;;;;;4992222;28;20484;-68
2021/08/24 04:58:27;;;;;;;2.20;1.60;;;14.20;99.90;;;;;;4992340;28;20426;-67
2021/08/24 05:00:55;;;;;;;4.73;2.03;;;14.40;99.90;;;;;;4991128;28;20447;-67
2021/08/24 05:03:28;;;;;;;5.03;2.17;;;14.40;99.90;;;;;;4992579;28;20433;-67
2021/08/24 05:05:57;;;;;;;4.70;1.93;;;14.70;99.90;;;;;;4990723;28;20436;-67
2021/08/24 05:08:27;;;;;;;4.07;1.70;;;14.60;99.90;;;;;;4991966;28;20433;-67
2021/08/24 05:10:55;;;;;;;2.70;2.00;;;15.00;99.90;;;;;;4991948;28;20941;-67
2021/08/24 05:13:23;;;;;;;4.10;1.80;;;15.40;99.90;;;;;;4991605;28;20481;-68
2021/08/24 05:15:52;;;;;;;3.10;2.30;;;15.60;99.90;;;;;;4991687;28;20426;-67
2021/08/24 05:18:20;;;;;;;2.33;1.10;;;14.80;99.90;;;;;;4991705;28;20437;-67
2021/08/24 05:20:48;;;;;;;4.53;2.50;;;14.00;99.90;;;;;;4992024;28;20437;-67
2021/08/24 05:23:16;;;;;;;3.20;2.10;;;13.30;99.90;;;;;;4992029;28;20532;-66
2021/08/24 05:25:47;;;;;;;3.87;1.53;;;13.00;99.90;;;;;;4991673;28;20789;-66
2021/08/24 05:28:17;;;;;;;4.77;3.07;;;12.80;99.90;;;;;;4991677;28;20541;-66
2021/08/24 05:30:46;;;;;;;2.37;2.17;;;12.80;99.90;;;;;;4985564;28;20430;-67
2021/08/24 05:33:14;;;;;;;2.83;1.83;;;12.80;99.90;;;;;;4971612;28;20856;-67
2021/08/24 05:35:42;;;;;;;5.37;2.80;;;12.90;99.90;;;;;;4971730;28;20431;-67
2021/08/24 05:38:10;;;;;;;2.33;1.70;;;12.90;99.90;;;;;;4988705;28;21125;-66
2021/08/24 05:40:38;;;;;;;4.97;2.97;;;13.00;99.90;;;;;;4991353;28;20425;-68
2021/08/24 05:43:08;;;;;;;4.83;2.60;;;13.10;99.90;;;;;;4990950;28;20421;-66
2021/08/24 05:45:36;;;;;;;6.50;2.23;;;13.20;99.90;;;;;;4990651;28;20842;-66
2021/08/24 05:48:05;;;;;;;3.17;1.87;;;13.20;99.90;;;;;;4985417;28;20854;-66
2021/08/24 05:50:33;;;;;;;1.80;1.60;;;13.30;99.90;;;;;;4971294;28;20453;-65
2021/08/24 05:53:01;;;;;;;1.50;1.30;;;13.40;99.90;;;;;;4970932;28;20835;-66
2021/08/24 05:55:29;;;;;;;8.57;2.43;;;13.50;99.90;;;;;;4970013;28;20455;-67
2021/08/24 05:57:57;;;;;;;8.43;2.30;;;13.60;99.90;;;;;;4969170;28;20801;-66
2021/08/24 06:00:27;;;;;;;8.67;1.83;;;13.60;99.90;;;;;;4977838;28;20441;-67
2021/08/24 06:02:55;;;;;;;2.90;1.77;;;13.70;99.90;;;;;;4958741;28;20455;-67
2021/08/24 06:05:24;;;;;;;2.30;1.73;;;13.80;99.90;;;;;;4952138;28;20462;-67
2021/08/24 06:07:52;;;;;;;1.60;1.27;;;13.90;99.90;;;;;;4951410;28;20463;-67
2021/08/24 06:10:21;;;;;;;3.50;1.57;;;14.10;99.90;;;;;;4952183;28;20431;-68
2021/08/24 06:12:49;;;;;;;2.70;1.90;;;14.10;99.90;;;;;;4972495;23;20773;-73
2021/08/24 06:15:17;;;;;;;3.73;1.70;;;14.10;99.90;;;;;;4993587;28;20492;-73
2021/08/24 06:17:47;;;;;;;3.37;1.97;;;14.20;99.90;;;;;;4991077;28;20432;-71
2021/08/24 06:20:16;;;;;;;6.93;1.40;;;14.40;99.90;;;;;;4998110;28;20408;-73
2021/08/24 06:22:44;;;;;;;2.13;1.40;;;14.50;99.90;;;;;;5012318;28;20419;-74
2021/08/24 06:25:15;;;;;;;3.43;1.63;;;14.40;99.90;;;;;;5012179;28;20433;-74
2021/08/24 06:27:44;;;;;;;3.70;1.87;;;14.60;99.90;;;;;;4994983;28;20410;-74
2021/08/24 06:30:13;;;;;;;1.50;1.40;;;14.70;99.90;;;;;;4995354;28;20468;-75
2021/08/24 06:32:45;;;;;;;1.30;1.20;;;14.80;99.90;;;;;;4998256;28;20486;-74
2021/08/24 06:35:16;;;;;;;2.13;1.07;;;14.90;99.90;;;;;;4996429;28;20457;-73
2021/08/24 06:37:44;;;;;;;4.47;1.50;;;14.90;99.90;;;;;;4994541;28;20488;-72
2021/08/24 06:40:13;;;;;;;2.93;1.60;;;14.90;99.90;;;;;;4993416;28;20442;-71
2021/08/24 06:42:43;;;;;;;1.70;1.00;;;15.00;99.90;;;;;;4992258;28;20988;-71
2021/08/24 06:45:13;;;;;;;3.27;1.27;;;15.00;99.90;;;;;;4996009;28;20793;-72
2021/08/24 06:47:41;;;;;;;2.20;1.10;;;15.10;99.90;;;;;;5006265;28;20491;-72
2021/08/24 06:50:10;;;;;;;2.30;1.13;;;15.20;99.90;;;;;;5011826;28;20408;-74
2021/08/24 06:52:39;;;;;;;2.60;1.43;;;15.40;99.90;;;;;;5011693;28;20423;-74
2021/08/24 06:55:09;;;;;;;2.70;1.43;;;15.50;99.90;;;;;;5011651;28;20463;-73
2021/08/24 06:57:38;;;;;;;1.60;1.20;;;15.70;99.90;;;;;;5011713;28;20395;-72
2021/08/24 07:00:12;;;;;;;2.30;1.30;;;15.80;99.90;;;;;;5011545;28;20443;-73
2021/08/24 07:02:41;;;;;;;1.90;1.70;;;15.90;99.90;;;;;;5011678;28;20469;-73
2021/08/24 07:05:10;;;;;;;1.77;0.90;;;15.90;99.90;;;;;;4992237;28;20468;-72
2021/08/24 07:07:40;;;;;;;10.07;3.90;;;16.00;99.90;;;;;;4985946;28;20418;-73
2021/08/24 07:10:10;;;;;;;2.30;1.20;;;16.00;99.90;;;;;;5012744;28;20407;-71
2021/08/24 07:12:38;;;;;;;1.97;0.90;;;16.00;99.90;;;;;;5010987;28;20552;-72
2021/08/24 07:15:08;;;;;;;2.03;1.07;;;16.10;99.90;;;;;;4995458;28;20452;-72
2021/08/24 07:17:37;;;;;;;1.87;1.20;;;16.10;99.90;;;;;;4999612;28;20425;-75
2021/08/24 07:20:08;;;;;;;3.20;1.40;;;16.10;99.90;;;;;;4982225;28;20993;-76
2021/08/24 07:22:36;;;;;;;1.97;1.10;;;16.20;99.90;;;;;;4996089;28;20915;-77
2021/08/24 07:25:09;;;;;;;2.20;1.43;;;16.30;99.90;;;;;;4996127;28;20432;-75
2021/08/24 07:27:38;;;;;;;2.40;1.67;;;16.50;99.90;;;;;;4995897;28;20397;-75
2021/08/24 07:30:07;;;;;;;2.93;1.30;;;16.60;99.90;;;;;;5007173;28;20400;-75
2021/08/24 07:32:37;;;;;;;4.13;1.67;;;16.60;99.90;;;;;;5018111;28;20419;-74
2021/08/24 07:35:08;;;;;;;3.30;1.30;;;16.70;99.90;;;;;;5016841;28;20450;-75
2021/08/24 07:37:36;;;;;;;2.87;1.40;;;16.60;99.90;;;;;;5017037;28;20604;-76
2021/08/24 07:40:09;;;;;;;3.50;1.50;;;16.60;99.90;;;;;;5017154;28;20561;-76
2021/08/24 07:42:38;;;;;;;6.03;1.87;;;16.70;99.90;;;;;;5017280;28;20457;-75
2021/08/24 07:45:08;;;;;;;2.70;1.50;;;16.90;99.90;;;;;;5027760;28;20414;-75
2021/08/24 07:47:37;;;;;;;2.30;1.33;;;17.00;99.90;;;;;;5033114;28;20404;-75
2021/08/24 07:50:07;;;;;;;1.53;1.00;;;17.00;99.90;;;;;;5034056;28;20425;-76
2021/08/24 07:52:36;;;;;;;1.87;1.27;;;17.10;99.90;;;;;;5032217;28;20431;-73
2021/08/24 07:55:07;;;;;;;1.70;0.90;;;17.20;99.90;;;;;;5016582;28;20508;-75
2021/08/24 07:57:35;;;;;;;1.87;1.10;;;17.20;99.90;;;;;;5033456;28;20794;-75
2021/08/24 08:00:04;;;;;;;3.20;1.30;;;17.30;99.90;;;;;;5027398;28;20396;-75
2021/08/24 08:02:39;;;;;;;2.30;1.40;;;17.30;99.90;;;;;;5007410;28;20416;-75
2021/08/24 08:05:08;;;;;;;1.57;0.90;;;17.30;99.90;;;;;;5008876;28;20412;-75
2021/08/24 08:07:38;;;;;;;2.00;1.10;;;17.50;99.90;;;;;;5008305;28;20748;-76
2021/08/24 08:10:09;;;;;;;4.20;2.03;;;17.60;99.90;;;;;;4983629;28;20780;-75
2021/08/24 08:12:37;;;;;;;1.47;0.90;;;17.70;99.90;;;;;;5001837;28;20420;-74
2021/08/24 08:15:10;;;;;;;2.20;1.40;;;17.70;99.90;;;;;;4999555;28;20946;-75
2021/08/24 08:17:38;;;;;;;3.33;1.30;;;17.70;99.90;;;;;;4991340;28;20400;-76
2021/08/24 08:20:08;;;;;;;2.70;1.83;;;17.70;99.90;;;;;;4997589;28;20417;-75
2021/08/24 08:22:38;;;;;;;2.43;1.13;;;17.80;99.90;;;;;;5013265;28;20412;-75
2021/08/24 08:25:10;;;;;;;5.30;1.53;;;17.90;99.90;;;;;;4996504;28;20392;-73
2021/08/24 08:27:38;;;;;;;2.83;1.50;;;18.00;99.90;;;;;;4994254;28;20427;-77
2021/08/24 08:30:08;;;;;;;2.77;1.40;;;18.10;99.90;;;;;;4994858;28;20408;-72
2021/08/24 08:32:39;;;;;;;1.50;1.40;;;18.20;99.90;;;;;;4998996;28;20424;-78
2021/08/24 08:35:09;;;;;;;2.90;1.77;;;18.30;99.90;;;;;;5014498;28;20435;-76
2021/08/24 08:37:38;;;;;;;2.47;1.30;;;18.20;99.90;;;;;;5015776;28;20421;-78
2021/08/24 08:40:09;;;;;;;2.07;1.13;;;18.20;99.90;;;;;;5014874;28;20440;-75
2021/08/24 08:42:50;;;;;;;1.50;0.73;;;18.30;99.90;;;;;;5005591;28;20487;-77
2021/08/24 08:45:23;;;;;;;1.97;0.90;;;18.30;99.90;;;;;;4993946;28;20433;-78
2021/08/24 08:48:05;;;;;;;2.27;1.10;;;18.30;99.90;;;;;;5014155;28;20452;-73
2021/08/24 08:50:41;;;;;;;2.77;1.40;;;18.30;99.90;;;;;;4992992;28;20425;-77
2021/08/24 08:53:15;;;;;;;2.67;1.40;;;18.50;99.90;;;;;;5013521;28;20483;-78
2021/08/24 08:55:51;;;;;;;2.90;1.20;;;18.60;99.90;;;;;;5017834;28;20466;-77
2021/08/24 08:58:32;;;;;;;3.00;1.63;;;18.70;99.90;;;;;;5021368;28;20400;-76
2021/08/24 09:01:11;;;;;;;1.57;0.90;;;18.80;99.90;;;;;;4996643;28;20436;-78
2021/08/24 09:03:47;;;;;;;1.40;0.87;;;18.90;99.90;;;;;;4997958;28;20947;-77
2021/08/24 09:06:18;;;;;;;1.40;1.00;;;18.90;99.90;;;;;;5006227;28;20467;-76
2021/08/24 09:08:48;;;;;;;4.43;1.60;;;19.00;99.90;;;;;;5023729;28;20472;-77
2021/08/24 09:11:26;;;;;;;3.70;1.37;;;19.00;99.90;;;;;;5005212;28;20907;-76
2021/08/24 09:13:59;;;;;;;2.10;1.30;;;19.00;99.90;;;;;;5013307;28;20439;-76
2021/08/24 09:16:33;;;;;;;4.00;1.30;;;18.80;99.90;;;;;;5009938;28;20400;-76
2021/08/24 09:19:06;;;;;;;1.77;1.37;;;18.90;99.90;;;;;;5013973;28;20488;-75
2021/08/24 09:21:38;;;;;;;2.40;2.20;;;19.00;99.90;;;;;;5005459;28;20399;-76
2021/08/24 09:24:14;;;;;;;3.33;1.30;;;19.10;99.90;;;;;;5014515;28;20448;-76
2021/08/24 09:26:55;;;;;;;2.20;1.57;;;19.30;99.90;;;;;;5014507;28;20789;-75
2021/08/24 09:29:26;;;;;;;4.10;1.70;;;19.30;99.90;;;;;;5015244;28;20384;-76
2021/08/24 09:31:56;;;;;;;2.10;1.53;;;19.40;99.90;;;;;;5016461;28;20771;-76
2021/08/24 09:34:28;;;;;;;2.93;1.43;;;19.40;99.90;;;;;;5012939;28;20448;-76
2021/08/24 09:36:57;;;;;;;3.70;1.60;;;19.30;99.90;;;;;;5013015;28;20408;-74
2021/08/24 09:39:48;;;;;;;2.10;1.20;;;19.10;99.90;;;;;;5013105;28;20400;-76
2021/08/24 09:42:27;;;;;;;2.97;1.07;;;19.10;99.90;;;;;;5006122;28;20401;-74
2021/08/24 09:44:59;;;;;;;2.70;1.00;;;19.20;99.90;;;;;;4998118;28;20406;-76
2021/08/24 09:47:27;;;;;;;2.47;1.30;;;19.40;99.90;;;;;;5012519;28;20394;-73
2021/08/24 09:50:02;;;;;;;2.07;1.43;;;19.60;99.90;;;;;;5012662;28;20955;-75
2021/08/24 09:52:36;;;;;;;2.83;2.13;;;19.70;99.90;;;;;;5012844;28;20427;-75
2021/08/24 09:55:07;;;;;;;2.33;1.20;;;19.60;99.90;;;;;;4995641;28;20439;-76
2021/08/24 09:57:47;;;;;;;2.53;1.30;;;19.70;99.90;;;;;;4997122;28;20415;-77
2021/08/24 10:00:21;;;;;;;4.47;1.70;;;19.70;99.90;;;;;;4997019;28;20415;-75
2021/08/24 10:02:52;;;;;;;2.77;1.60;;;19.50;99.90;;;;;;5004643;28;20444;-78
2021/08/24 10:05:37;;;;;;;2.27;1.23;;;19.50;99.90;;;;;;4980611;28;20412;-76
2021/08/24 10:08:30;;;;;;;3.43;1.43;;;19.40;99.90;;;;;;5004688;28;20425;-75
2021/08/24 10:11:08;;;;;;;1.97;1.77;;;19.70;99.90;;;;;;5001784;28;20399;-76
2021/08/24 10:13:39;;;;;;;2.30;1.50;;;20.00;99.90;;;;;;4998775;28;20431;-75
2021/08/24 10:16:12;;;;;;;2.17;1.60;;;20.10;99.90;;;;;;5006869;28;20464;-74
2021/08/24 10:18:41;;;;;;;3.57;2.40;;;20.50;99.90;;;;;;4980538;28;20448;-76
2021/08/24 10:21:14;;;;;;;1.80;1.40;;;20.50;99.90;;;;;;5001437;28;20428;-75
2021/08/24 10:23:56;;;;;;;2.90;1.37;;;20.60;99.90;;;;;;5004516;28;20824;-77
2021/08/24 10:26:26;;;;;;;2.50;1.50;;;20.50;99.90;;;;;;4983481;28;20488;-77
2021/08/24 10:28:58;;;;;;;2.60;1.53;;;20.30;99.90;;;;;;5000193;28;20422;-77
2021/08/24 10:31:34;;;;;;;1.93;1.43;;;19.80;99.90;;;;;;5005834;28;20936;-74
2021/08/24 10:34:05;;;;;;;3.73;1.87;;;19.50;99.90;;;;;;5020875;28;20457;-73
2021/08/24 10:36:38;;;;;;;3.53;1.87;;;19.30;99.90;;;;;;5029396;28;20469;-75
2021/08/24 10:39:24;;;;;;;2.97;1.57;;;19.40;99.90;;;;;;5028150;28;20395;-75
2021/08/24 10:42:04;;;;;;;2.53;1.60;;;19.20;99.90;;;;;;5031677;28;20388;-74
2021/08/24 10:44:44;;;;;;;2.50;1.63;;;19.30;99.90;;;;;;5011957;28;20423;-75
2021/08/24 10:47:22;;;;;;;2.10;1.43;;;19.10;99.90;;;;;;4996202;28;20445;-74
2021/08/24 10:49:51;;;;;;;2.90;1.70;;;19.20;99.90;;;;;;5016234;28;20431;-73
2021/08/24 10:52:36;;;;;;;3.20;1.77;;;19.30;99.90;;;;;;5007668;28;20412;-74
2021/08/24 10:55:11;;;;;;;3.23;1.83;;;19.30;99.90;;;;;;4996547;28;20727;-74
2021/08/24 10:57:56;;;;;;;2.50;1.77;;;19.50;99.90;;;;;;4980244;28;20452;-75
2021/08/24 11:00:50;;;;;;;2.60;1.20;;;19.80;99.90;;;;;;4997353;28;20919;-73
2021/08/24 11:03:57;;;;;;;3.00;2.13;;;20.30;99.90;;;;;;4999919;28;20517;-73
2021/08/24 11:06:34;;;;;;;3.47;1.77;;;20.30;99.90;;;;;;5002240;28;20468;-74
2021/08/24 11:09:13;;;;;;;4.70;1.57;;;20.00;99.90;;;;;;5002489;28;20430;-73
2021/08/24 11:11:51;;;;;;;2.93;2.00;;;19.80;99.90;;;;;;4982601;28;20454;-73
2021/08/24 11:14:32;;;;;;;2.50;1.53;;;19.90;99.90;;;;;;4998968;28;21019;-73
2021/08/24 11:17:18;;;;;;;4.20;1.70;;;19.80;99.90;;;;;;5002787;28;20497;-73
2021/08/24 11:20:06;;;;;;;4.40;1.93;;;19.80;99.90;;;;;;4999871;28;20409;-73
2021/08/24 11:22:40;;;;;;;3.33;1.63;;;19.90;99.90;;;;;;5014600;28;20474;-74
2021/08/24 11:25:28;;;;;;;3.20;1.83;;;20.10;99.90;;;;;;5009572;28;20403;-72
2021/08/24 11:28:01;;;;;;;4.30;1.77;;;20.10;99.90;;;;;;4974707;28;20413;-73
2021/08/24 11:30:37;;;;;;;3.67;2.10;;;20.40;99.90;;;;;;4994314;28;20429;-74
2021/08/24 11:33:11;;;;;;;3.43;2.23;;;20.50;99.90;;;;;;5001257;28;20454;-72
2021/08/24 11:35:49;;;;;;;6.90;2.80;;;20.70;99.90;;;;;;5010877;28;20563;-73
2021/08/24 11:38:22;;;;;;;3.13;2.20;;;20.80;99.90;;;;;;5030299;28;20435;-72
2021/08/24 11:40:56;;;;;;;4.90;2.80;;;20.90;99.90;;;;;;5031737;28;20661;-77
2021/08/24 11:43:33;;;;;;;3.00;2.20;;;20.90;99.90;;;;;;5029769;28;20974;-77
2021/08/24 11:46:06;;;;;;;3.10;2.30;;;20.80;99.90;;;;;;5019603;28;20437;-76
2021/08/24 11:48:42;;;;;;;3.40;1.80;;;20.70;99.90;;;;;;5017484;28;20429;-77
2021/08/24 11:51:16;;;;;;;4.40;3.30;;;20.70;99.90;;;;;;5024142;28;20431;-81
2021/08/24 11:53:50;;;;;;;3.57;2.17;;;20.70;99.90;;;;;;4995981;28;20457;-81
2021/08/24 11:56:33;;;;;;;6.03;2.63;;;20.40;99.90;;;;;;4997073;28;20488;-78
2021/08/24 11:59:08;;;;;;;6.00;2.60;;;20.20;99.90;;;;;;5023999;28;20482;-81
2021/08/24 12:01:36;;;;;;;4.77;2.47;;;20.10;99.90;;;;;;5004937;28;20419;-78
2021/08/24 12:04:12;;;;;;;3.50;2.13;;;20.30;99.90;;;;;;4989661;28;20499;-79
2021/08/24 12:06:44;;;;;;;4.90;2.20;;;20.30;99.90;;;;;;5006915;28;20407;-76
2021/08/24 12:09:39;;;;;;;4.90;2.50;;;20.50;99.90;;;;;;5002426;28;20465;-79
2021/08/24 12:12:14;;;;;;;5.90;3.23;;;20.50;99.90;;;;;;5002991;28;20823;-80
2021/08/24 12:14:54;;;;;;;4.07;2.13;;;20.90;99.90;;;;;;5101220;23;20484;-66
2021/08/24 12:17:29;;;;;;;4.30;2.57;;;20.80;99.90;;;;;;4984370;28;20468;-68
2021/08/24 12:20:01;;;;;;;4.23;3.20;;;20.90;99.90;;;;;;4981959;28;20413;-67
2021/08/24 12:22:33;;;;;;;6.30;2.53;;;20.90;99.90;;;;;;4977284;28;20955;-67
2021/08/24 12:25:06;;;;;;;2.97;2.20;;;21.20;99.90;;;;;;4972578;28;20385;-67
2021/08/24 12:28:02;;;;;;;4.07;1.97;;;21.00;99.90;;;;;;4972821;28;20413;-66
2021/08/24 12:30:57;;;;;;;4.37;2.67;;;20.70;99.90;;;;;;4972724;28;20430;-66
2021/08/24 12:33:32;;;;;;;5.63;2.77;;;20.60;99.90;;;;;;4972534;28;20525;-65
2021/08/24 12:36:49;;;;;;;3.70;2.30;;;20.80;99.90;;;;;;4972281;28;20416;-66
2021/08/24 12:39:36;;;;;;;4.27;2.90;;;20.60;99.90;;;;;;4972867;28;20400;-68
2021/08/24 12:42:28;;;;;;;3.60;2.33;;;20.70;99.90;;;;;;4991319;28;20461;-66
2021/08/24 12:45:25;;;;;;;4.27;3.07;;;20.70;99.90;;;;;;4989998;28;20471;-67
2021/08/24 12:48:16;;;;;;;4.70;2.90;;;21.10;99.90;;;;;;4991662;28;20928;-67
2021/08/24 12:51:04;;;;;;;5.47;4.20;;;21.60;99.90;;;;;;4991642;28;20402;-67
2021/08/24 12:53:50;;;;;;;4.93;2.70;;;21.50;99.90;;;;;;4974902;28;20460;-68
2021/08/24 12:56:42;;;;;;;4.10;2.70;;;21.00;99.90;;;;;;4978194;28;20553;-65
2021/08/24 12:59:30;;;;;;;6.47;4.00;;;20.60;99.90;;;;;;4985296;28;20449;-66
2021/08/24 13:02:30;;;;;;;3.60;2.57;;;20.40;99.90;;;;;;4969323;28;20844;-65
2021/08/24 13:05:05;;;;;;;4.13;2.73;;;20.40;99.90;;;;;;4931493;29;20399;-66
2021/08/24 13:07:40;;;;;;;4.83;2.43;;;20.70;99.90;;;;;;4964517;28;20420;-65
2021/08/24 13:10:26;;;;;;;4.13;2.40;;;21.00;99.90;;;;;;4972212;28;20426;-66
2021/08/24 13:12:56;;;;;;;5.40;2.67;;;20.90;99.90;;;;;;4977293;28;20531;-65
2021/08/24 13:15:49;;;;;;;3.37;2.63;;;20.90;99.90;;;;;;4973307;28;20453;-65